Terminal Aerodrome Forecast
Issued by NWS

Home | Current Version | Previous Version | Text Only | Print | Product List | Glossary On
Versions: 1 2 3 4 5 6 7 8 9 10 11 12 13 14 15 16 17 18 19 20 21
719
FTUS43 KAPX 192100 AAA
TAFMBL
TAF AMD
KMBL 192100Z 1921/2018 28011KT P6SM -SHSN BKN030
     FM200000 28008KT P6SM BKN040
     FM201300 23008KT P6SM SCT040=

USA.gov is the U.S. government's official web portal to all federal, state and local government web resources and services.